Time;durP1;ratioP1;P1;durP2;ratioP2;P2;SDS_P1;SDS_P2;PMS_P1;PMS_P2;Temp;Humidity;BMP_temperature;BMP_pressure;BME280_temperature;BME280_humidity;BME280_pressure;Samples;Min_cycle;Max_cycle;Signal;HPM_P1;HPM_P2
2022/11/08 00:01:31;;;;;;;19.25;4.05;;;;;;;;;;5039931;28;20091;-65
2022/11/08 00:03:57;;;;;;;16.30;3.97;;;;;;;;;;5041602;28;20045;-65
2022/11/08 00:14:39;;;;;;;12.38;3.50;;;;;;;;;;5038442;28;20049;-65
2022/11/08 00:17:05;;;;;;;17.02;3.65;;;;;;;;;;5036741;28;20036;-65
2022/11/08 00:19:31;;;;;;;17.02;4.63;;;;;;;;;;5039634;28;20556;-65
2022/11/08 00:21:57;;;;;;;17.48;5.03;;;;;;;;;;5063723;28;20090;-65
2022/11/08 00:24:23;;;;;;;19.13;4.10;;;;;;;;;;5067987;28;20151;-65
2022/11/08 00:26:49;;;;;;;16.90;3.60;;;;;;;;;;5040532;28;20068;-65
2022/11/08 00:29:16;;;;;;;15.90;3.72;;;;;;;;;;5037552;28;20041;-65
2022/11/08 00:31:43;;;;;;;19.02;4.10;;;;;;;;;;5036575;28;20111;-65
2022/11/08 00:34:09;;;;;;;25.05;4.88;;;;;;;;;;5036331;28;20063;-65
2022/11/08 00:36:35;;;;;;;12.45;3.97;;;;;;;;;;5038695;28;20045;-65
2022/11/08 00:39:01;;;;;;;17.40;4.18;;;;;;;;;;5039578;28;20127;-65
2022/11/08 00:41:27;;;;;;;18.98;4.25;;;;;;;;;;5039133;28;20137;-65
2022/11/08 00:43:54;;;;;;;17.17;3.83;;;;;;;;;;5035789;28;20083;-65
2022/11/08 00:46:20;;;;;;;17.33;4.07;;;;;;;;;;5039555;28;20060;-65
2022/11/08 00:48:46;;;;;;;15.77;4.03;;;;;;;;;;5037646;28;20099;-65
2022/11/08 00:51:12;;;;;;;17.13;3.58;;;;;;;;;;5061523;28;20041;-64
2022/11/08 00:53:39;;;;;;;25.73;5.13;;;;;;;;;;5020429;28;21921;-65
2022/11/08 00:56:06;;;;;;;16.75;3.80;;;;;;;;;;5024846;28;20056;-65
2022/11/08 00:58:33;;;;;;;25.23;4.45;;;;;;;;;;5053195;28;21982;-65
2022/11/08 01:00:59;;;;;;;15.95;3.78;;;;;;;;;;5025950;28;20451;-65
2022/11/08 01:03:25;;;;;;;14.50;3.58;;;;;;;;;;5042389;28;20057;-65
2022/11/08 01:05:53;;;;;;;14.77;3.70;;;;;;;;;;5035244;28;20045;-65
2022/11/08 01:08:20;;;;;;;17.98;3.70;;;;;;;;;;5063701;28;20048;-65
2022/11/08 01:10:48;;;;;;;14.75;3.85;;;;;;;;;;5039053;28;20052;-65
2022/11/08 01:13:14;;;;;;;14.90;3.83;;;;;;;;;;5036362;28;20503;-65
2022/11/08 01:15:42;;;;;;;12.77;3.00;;;;;;;;;;5039289;28;20115;-65
2022/11/08 01:18:09;;;;;;;18.25;3.78;;;;;;;;;;5038673;28;20493;-65
2022/11/08 01:20:38;;;;;;;12.77;3.55;;;;;;;;;;5064020;28;20037;-65
2022/11/08 01:23:05;;;;;;;16.92;4.07;;;;;;;;;;5036528;28;20048;-65
2022/11/08 01:25:31;;;;;;;18.33;3.83;;;;;;;;;;5053012;28;20144;-65
2022/11/08 01:27:57;;;;;;;17.10;3.78;;;;;;;;;;5034823;28;20044;-65
2022/11/08 01:30:23;;;;;;;12.88;3.65;;;;;;;;;;5034581;28;20177;-65
2022/11/08 01:32:49;;;;;;;14.38;3.72;;;;;;;;;;5033925;28;20075;-65
2022/11/08 01:35:15;;;;;;;16.30;3.45;;;;;;;;;;5072574;28;20388;-65
2022/11/08 01:37:41;;;;;;;15.88;3.03;;;;;;;;;;5037056;28;20037;-65
2022/11/08 01:40:08;;;;;;;9.82;2.63;;;;;;;;;;5035587;28;20061;-65
2022/11/08 01:42:34;;;;;;;19.00;3.78;;;;;;;;;;5068873;28;20548;-66
2022/11/08 01:45:00;;;;;;;16.85;3.53;;;;;;;;;;5036112;28;20061;-65
2022/11/08 01:47:27;;;;;;;11.82;3.13;;;;;;;;;;5035759;28;20037;-65
2022/11/08 01:49:55;;;;;;;14.48;3.17;;;;;;;;;;5035975;28;20404;-65
2022/11/08 01:52:27;;;;;;;15.07;3.22;;;;;;;;;;5067238;28;20114;-65
2022/11/08 01:54:58;;;;;;;10.70;3.05;;;;;;;;;;5037917;28;20076;-65
2022/11/08 01:57:29;;;;;;;19.20;3.33;;;;;;;;;;5037679;28;20056;-65
2022/11/08 01:59:59;;;;;;;12.30;4.13;;;;;;;;;;5037747;28;20657;-65
2022/11/08 02:02:26;;;;;;;15.48;3.75;;;;;;;;;;5036287;28;20048;-65
2022/11/08 02:04:52;;;;;;;21.00;3.55;;;;;;;;;;5037505;28;20049;-65
2022/11/08 02:07:18;;;;;;;17.67;3.00;;;;;;;;;;5038517;28;20041;-65
2022/11/08 02:09:46;;;;;;;16.17;3.60;;;;;;;;;;5032496;28;20045;-65
2022/11/08 02:12:13;;;;;;;20.13;4.13;;;;;;;;;;5037860;28;20480;-65
2022/11/08 02:14:39;;;;;;;16.13;3.42;;;;;;;;;;5030364;28;20204;-65
2022/11/08 02:17:06;;;;;;;12.32;3.08;;;;;;;;;;5036414;28;20091;-65
2022/11/08 02:19:37;;;;;;;14.88;3.38;;;;;;;;;;5034002;28;20041;-65
2022/11/08 02:22:05;;;;;;;20.40;3.70;;;;;;;;;;5032353;28;20037;-65
2022/11/08 02:24:31;;;;;;;18.83;3.80;;;;;;;;;;5037249;28;20057;-65
2022/11/08 02:26:58;;;;;;;13.15;3.28;;;;;;;;;;5068063;28;20106;-65
2022/11/08 02:29:25;;;;;;;16.27;3.20;;;;;;;;;;5037990;28;20057;-65
2022/11/08 02:31:52;;;;;;;16.02;3.90;;;;;;;;;;5033939;28;20094;-65
2022/11/08 02:34:20;;;;;;;12.95;2.75;;;;;;;;;;5067382;28;20056;-65
2022/11/08 02:36:48;;;;;;;14.85;2.72;;;;;;;;;;5061798;28;20093;-64
2022/11/08 02:39:14;;;;;;;12.52;3.75;;;;;;;;;;5037450;28;20492;-64
2022/11/08 02:41:40;;;;;;;18.50;4.70;;;;;;;;;;5035723;28;20087;-65
2022/11/08 02:44:06;;;;;;;18.50;3.50;;;;;;;;;;5034940;28;20053;-65
2022/11/08 02:46:32;;;;;;;19.48;3.80;;;;;;;;;;5036811;28;20177;-65
2022/11/08 02:48:58;;;;;;;10.32;3.05;;;;;;;;;;5068076;28;20882;-65
2022/11/08 02:51:25;;;;;;;16.00;3.58;;;;;;;;;;5034179;28;20069;-65
2022/11/08 02:53:51;;;;;;;15.95;4.18;;;;;;;;;;5033387;28;20562;-65
2022/11/08 02:56:17;;;;;;;14.38;3.13;;;;;;;;;;5034198;28;20103;-65
2022/11/08 02:58:43;;;;;;;11.40;3.38;;;;;;;;;;5035587;28;20094;-65
2022/11/08 03:01:09;;;;;;;13.18;3.40;;;;;;;;;;5033096;28;20120;-65
2022/11/08 03:03:35;;;;;;;15.18;3.50;;;;;;;;;;5034870;28;20147;-65
2022/11/08 03:06:01;;;;;;;17.63;3.53;;;;;;;;;;5038378;28;20095;-65
2022/11/08 03:08:28;;;;;;;12.88;2.90;;;;;;;;;;5036563;28;20060;-65
2022/11/08 03:10:54;;;;;;;15.82;3.47;;;;;;;;;;5042126;28;20147;-65
2022/11/08 03:13:20;;;;;;;11.88;3.65;;;;;;;;;;5042121;28;20139;-65
2022/11/08 03:15:46;;;;;;;13.68;3.70;;;;;;;;;;5041924;28;20041;-65
2022/11/08 03:18:12;;;;;;;12.65;3.15;;;;;;;;;;5038238;28;20457;-64
2022/11/08 03:20:38;;;;;;;20.42;3.72;;;;;;;;;;5039190;28;20497;-65
2022/11/08 03:23:05;;;;;;;13.75;2.65;;;;;;;;;;5039387;28;20961;-65
2022/11/08 03:25:31;;;;;;;18.05;3.08;;;;;;;;;;5039039;28;20048;-65
2022/11/08 03:28:02;;;;;;;12.90;3.25;;;;;;;;;;5039714;28;20045;-65
2022/11/08 03:30:28;;;;;;;12.65;3.20;;;;;;;;;;5034699;28;22538;-65
2022/11/08 03:32:54;;;;;;;14.35;3.60;;;;;;;;;;5036276;28;20447;-65
2022/11/08 03:35:20;;;;;;;12.55;3.17;;;;;;;;;;5035860;28;20075;-65
2022/11/08 03:37:50;;;;;;;13.05;3.30;;;;;;;;;;5039694;28;20131;-65
2022/11/08 03:40:17;;;;;;;13.52;3.55;;;;;;;;;;5070894;28;20098;-65
2022/11/08 03:42:44;;;;;;;18.23;3.90;;;;;;;;;;5052694;28;20045;-65
2022/11/08 03:45:10;;;;;;;15.35;3.05;;;;;;;;;;5038405;28;20449;-65
2022/11/08 03:47:37;;;;;;;14.82;3.22;;;;;;;;;;5036967;28;20049;-65
2022/11/08 03:50:04;;;;;;;11.75;3.35;;;;;;;;;;5039775;28;20045;-65
2022/11/08 03:52:30;;;;;;;12.15;3.47;;;;;;;;;;5039232;28;20033;-66
2022/11/08 03:54:56;;;;;;;15.50;3.00;;;;;;;;;;5039736;28;20047;-65
2022/11/08 03:57:23;;;;;;;13.15;3.65;;;;;;;;;;5069594;28;20058;-65
2022/11/08 03:59:49;;;;;;;23.10;4.10;;;;;;;;;;5039689;28;20041;-65
2022/11/08 04:02:15;;;;;;;12.40;3.70;;;;;;;;;;5037987;28;20565;-65
2022/11/08 04:04:41;;;;;;;16.20;3.63;;;;;;;;;;5038125;28;20045;-65
2022/11/08 04:07:07;;;;;;;12.07;4.10;;;;;;;;;;5035607;28;20053;-65
2022/11/08 04:09:33;;;;;;;10.43;3.35;;;;;;;;;;5039312;28;20041;-65
2022/11/08 04:22:59;;;;;;;14.50;3.83;;;;;;;;;;5036048;28;20060;-65
2022/11/08 04:25:25;;;;;;;12.60;4.20;;;;;;;;;;5042329;28;20335;-65
2022/11/08 04:27:51;;;;;;;17.58;5.80;;;;;;;;;;5037881;28;20044;-65
2022/11/08 04:30:17;;;;;;;21.70;4.85;;;;;;;;;;5040615;28;21570;-65
2022/11/08 04:32:43;;;;;;;12.60;3.30;;;;;;;;;;5030476;28;20041;-65
2022/11/08 04:35:09;;;;;;;15.43;3.75;;;;;;;;;;5035369;28;20488;-65
2022/11/08 04:37:36;;;;;;;13.05;3.72;;;;;;;;;;5071351;28;20319;-65
2022/11/08 04:40:02;;;;;;;14.63;4.30;;;;;;;;;;5039937;28;20502;-65
2022/11/08 04:42:29;;;;;;;14.48;4.60;;;;;;;;;;5040476;28;20075;-66
2022/11/08 04:44:55;;;;;;;15.18;3.83;;;;;;;;;;5040901;28;20048;-66
2022/11/08 04:47:21;;;;;;;12.50;3.88;;;;;;;;;;5037511;28;20041;-65
2022/11/08 04:49:47;;;;;;;11.00;3.30;;;;;;;;;;5037472;28;20056;-65
2022/11/08 04:52:14;;;;;;;17.10;4.75;;;;;;;;;;5039063;28;20506;-65
2022/11/08 04:54:43;;;;;;;13.57;4.82;;;;;;;;;;5040138;28;20039;-66
2022/11/08 04:57:10;;;;;;;17.55;4.07;;;;;;;;;;5039089;28;20084;-66
2022/11/08 04:59:36;;;;;;;14.82;3.90;;;;;;;;;;5040692;28;20051;-65
2022/11/08 05:02:02;;;;;;;9.98;3.00;;;;;;;;;;5034799;28;22283;-66
2022/11/08 05:04:29;;;;;;;11.93;3.22;;;;;;;;;;5034564;28;20119;-66
2022/11/08 05:06:55;;;;;;;17.23;3.80;;;;;;;;;;5039535;28;20064;-65
2022/11/08 05:09:21;;;;;;;12.20;4.18;;;;;;;;;;5067903;28;20056;-65
2022/11/08 05:11:47;;;;;;;10.70;3.80;;;;;;;;;;5067010;28;20056;-66
2022/11/08 05:14:13;;;;;;;17.10;3.92;;;;;;;;;;5037012;28;20090;-66
2022/11/08 05:16:39;;;;;;;17.30;3.88;;;;;;;;;;5036889;28;20090;-66
2022/11/08 05:19:06;;;;;;;15.35;3.85;;;;;;;;;;5033936;28;20063;-66
2022/11/08 05:24:17;;;;;;;13.05;3.85;;;;;;;;;;5040751;28;20044;-65
2022/11/08 05:26:44;;;;;;;16.25;3.65;;;;;;;;;;5035177;28;20391;-65
2022/11/08 05:29:11;;;;;;;15.05;4.22;;;;;;;;;;5038197;28;20337;-66
2022/11/08 05:31:37;;;;;;;15.50;3.75;;;;;;;;;;5038003;28;20354;-66
2022/11/08 05:34:04;;;;;;;15.65;4.07;;;;;;;;;;5032821;28;20389;-65
2022/11/08 05:36:30;;;;;;;11.73;3.42;;;;;;;;;;5033331;28;20064;-65
2022/11/08 05:38:56;;;;;;;16.42;5.05;;;;;;;;;;5035119;28;20056;-65
2022/11/08 05:41:23;;;;;;;15.82;4.00;;;;;;;;;;5061854;28;20049;-65
2022/11/08 05:43:51;;;;;;;12.18;3.80;;;;;;;;;;5036061;28;20036;-65
2022/11/08 05:46:18;;;;;;;15.98;4.85;;;;;;;;;;5035252;28;20076;-65
2022/11/08 05:48:46;;;;;;;12.70;3.80;;;;;;;;;;5037312;28;20076;-65
2022/11/08 05:51:13;;;;;;;13.68;3.58;;;;;;;;;;5036603;28;20051;-65
2022/11/08 05:53:40;;;;;;;11.48;3.35;;;;;;;;;;5035208;28;20418;-66
2022/11/08 05:56:06;;;;;;;14.88;3.42;;;;;;;;;;5036918;28;20029;-66
2022/11/08 05:58:33;;;;;;;11.05;3.50;;;;;;;;;;5050856;28;20152;-66
2022/11/08 06:01:00;;;;;;;12.25;3.38;;;;;;;;;;5036146;28;20041;-66
2022/11/08 06:03:26;;;;;;;11.85;3.30;;;;;;;;;;5035139;28;20045;-66
2022/11/08 06:05:52;;;;;;;10.98;2.95;;;;;;;;;;5038581;28;21449;-66
2022/11/08 06:08:19;;;;;;;13.75;3.25;;;;;;;;;;5034298;28;20063;-66
2022/11/08 06:10:45;;;;;;;12.90;3.58;;;;;;;;;;5036798;28;20119;-66
2022/11/08 06:13:11;;;;;;;12.77;3.28;;;;;;;;;;5038357;28;20036;-66
2022/11/08 06:15:37;;;;;;;10.43;3.30;;;;;;;;;;5038094;28;20059;-66
2022/11/08 06:18:04;;;;;;;12.45;4.18;;;;;;;;;;5039459;28;20063;-66
2022/11/08 06:20:30;;;;;;;8.70;2.95;;;;;;;;;;5035677;28;20044;-66
2022/11/08 06:22:56;;;;;;;13.65;3.22;;;;;;;;;;5068600;28;20141;-66
2022/11/08 06:25:23;;;;;;;11.32;2.80;;;;;;;;;;5039196;28;20037;-66
2022/11/08 06:27:49;;;;;;;9.75;2.65;;;;;;;;;;5035899;28;20052;-66
2022/11/08 06:30:15;;;;;;;11.10;2.70;;;;;;;;;;5069884;28;22450;-66
2022/11/08 06:32:41;;;;;;;11.93;2.60;;;;;;;;;;5046494;28;20477;-66
2022/11/08 06:35:07;;;;;;;11.18;2.33;;;;;;;;;;5043318;28;20388;-65
2022/11/08 06:37:33;;;;;;;8.77;2.63;;;;;;;;;;5048605;28;20041;-66
2022/11/08 06:40:00;;;;;;;13.23;2.30;;;;;;;;;;5047149;28;20041;-66
2022/11/08 06:42:26;;;;;;;6.32;2.22;;;;;;;;;;5047824;28;20087;-66
2022/11/08 06:44:52;;;;;;;19.98;4.57;;;;;;;;;;5045873;28;20044;-66
2022/11/08 06:47:18;;;;;;;7.80;2.67;;;;;;;;;;5044648;28;20094;-66
2022/11/08 06:49:45;;;;;;;8.48;2.70;;;;;;;;;;5049966;28;20083;-66
2022/11/08 06:52:11;;;;;;;11.35;3.03;;;;;;;;;;5042554;28;20510;-66
2022/11/08 06:54:37;;;;;;;9.00;2.17;;;;;;;;;;5041913;28;20128;-66
2022/11/08 06:57:03;;;;;;;9.82;3.00;;;;;;;;;;5042352;28;20049;-66
2022/11/08 06:59:29;;;;;;;11.43;3.35;;;;;;;;;;5044093;28;20131;-66
2022/11/08 07:01:56;;;;;;;10.90;2.50;;;;;;;;;;5041024;28;20120;-66
2022/11/08 07:04:22;;;;;;;11.65;2.60;;;;;;;;;;5077071;28;20051;-67
2022/11/08 07:06:48;;;;;;;8.43;2.35;;;;;;;;;;5075876;28;20529;-65
2022/11/08 07:09:15;;;;;;;9.13;2.53;;;;;;;;;;5048605;28;20095;-65
2022/11/08 07:11:41;;;;;;;10.10;2.70;;;;;;;;;;5050567;28;20310;-66
2022/11/08 07:14:07;;;;;;;10.32;2.35;;;;;;;;;;5080196;28;20521;-66
2022/11/08 07:16:33;;;;;;;12.73;2.80;;;;;;;;;;5084550;28;20086;-65
2022/11/08 07:18:59;;;;;;;9.65;2.83;;;;;;;;;;5047325;28;20045;-65
2022/11/08 07:21:25;;;;;;;13.45;2.72;;;;;;;;;;5047825;28;20048;-65
2022/11/08 07:23:52;;;;;;;8.45;2.90;;;;;;;;;;5049180;28;20188;-64
2022/11/08 07:26:19;;;;;;;6.93;2.10;;;;;;;;;;5051474;28;20119;-66
2022/11/08 07:28:45;;;;;;;7.43;2.78;;;;;;;;;;5046699;28;20063;-65
2022/11/08 07:31:11;;;;;;;7.13;2.35;;;;;;;;;;5050042;28;20052;-65
2022/11/08 07:33:38;;;;;;;7.55;2.20;;;;;;;;;;5054375;28;20049;-65
2022/11/08 07:36:04;;;;;;;10.35;2.63;;;;;;;;;;5054213;28;20041;-65
2022/11/08 07:38:30;;;;;;;7.55;2.28;;;;;;;;;;5051787;28;20369;-65
2022/11/08 07:40:58;;;;;;;7.85;2.20;;;;;;;;;;5076932;28;20048;-65
2022/11/08 07:43:25;;;;;;;5.85;2.22;;;;;;;;;;5072953;28;20037;-66
2022/11/08 07:45:55;;;;;;;7.35;2.40;;;;;;;;;;5076641;28;20044;-65
2022/11/08 07:48:22;;;;;;;9.95;2.63;;;;;;;;;;5086227;28;20068;-65
2022/11/08 07:50:48;;;;;;;7.60;2.55;;;;;;;;;;5045732;28;20063;-65
2022/11/08 07:53:14;;;;;;;10.35;2.53;;;;;;;;;;5052533;28;20047;-65
2022/11/08 07:55:40;;;;;;;8.20;2.30;;;;;;;;;;5076806;28;20094;-65
2022/11/08 07:58:07;;;;;;;11.05;2.45;;;;;;;;;;5052081;28;20610;-65
2022/11/08 08:00:35;;;;;;;9.00;3.03;;;;;;;;;;5049731;28;20124;-66
2022/11/08 08:03:02;;;;;;;10.60;2.63;;;;;;;;;;5052343;28;20048;-66
2022/11/08 08:05:29;;;;;;;13.07;2.70;;;;;;;;;;5052572;28;20096;-66
2022/11/08 08:07:57;;;;;;;7.65;2.78;;;;;;;;;;5053035;28;20390;-66
2022/11/08 08:10:23;;;;;;;10.00;2.45;;;;;;;;;;5086322;28;20032;-64
2022/11/08 08:12:50;;;;;;;8.32;2.53;;;;;;;;;;5053295;28;20043;-64
2022/11/08 08:15:16;;;;;;;9.88;2.72;;;;;;;;;;5055410;28;20052;-64
2022/11/08 08:17:42;;;;;;;8.25;3.17;;;;;;;;;;5053475;28;20120;-64
2022/11/08 08:20:09;;;;;;;7.88;2.75;;;;;;;;;;5052093;28;20049;-64
2022/11/08 08:22:35;;;;;;;10.10;2.88;;;;;;;;;;5052637;28;20048;-64
2022/11/08 08:25:01;;;;;;;5.03;2.40;;;;;;;;;;5052290;28;20076;-64
2022/11/08 08:27:28;;;;;;;9.63;3.08;;;;;;;;;;5050941;28;20087;-64
2022/11/08 08:29:55;;;;;;;8.77;3.38;;;;;;;;;;5085084;28;20076;-64
2022/11/08 08:32:21;;;;;;;11.60;2.53;;;;;;;;;;5052160;28;20041;-64
2022/11/08 08:34:47;;;;;;;8.68;2.53;;;;;;;;;;5052395;28;20103;-65
2022/11/08 08:37:14;;;;;;;10.02;2.80;;;;;;;;;;5049434;28;20504;-64
2022/11/08 08:39:40;;;;;;;6.03;2.42;;;;;;;;;;5050619;28;20064;-64
2022/11/08 08:42:07;;;;;;;11.55;3.05;;;;;;;;;;5048959;28;20137;-64
2022/11/08 08:44:34;;;;;;;10.55;3.10;;;;;;;;;;5046395;28;20041;-64
2022/11/08 08:47:00;;;;;;;7.82;2.42;;;;;;;;;;5050936;28;20041;-64
2022/11/08 08:49:26;;;;;;;7.90;2.83;;;;;;;;;;5050345;28;20045;-64
2022/11/08 08:51:52;;;;;;;9.77;3.45;;;;;;;;;;5052826;28;20175;-64
2022/11/08 08:54:18;;;;;;;5.65;2.22;;;;;;;;;;5051740;28;20047;-65
2022/11/08 08:56:45;;;;;;;6.15;2.67;;;;;;;;;;5055471;28;20075;-64
2022/11/08 08:59:11;;;;;;;9.95;2.67;;;;;;;;;;5052267;28;20053;-64
2022/11/08 09:01:37;;;;;;;5.75;2.30;;;;;;;;;;5052014;28;20037;-64
2022/11/08 09:04:03;;;;;;;7.68;2.47;;;;;;;;;;5052550;28;20059;-65
2022/11/08 09:06:29;;;;;;;6.10;2.70;;;;;;;;;;5050168;28;20132;-64
2022/11/08 09:08:56;;;;;;;5.90;2.30;;;;;;;;;;5081183;28;20451;-64
2022/11/08 09:11:22;;;;;;;7.25;2.72;;;;;;;;;;5058193;28;20041;-64
2022/11/08 09:13:48;;;;;;;7.25;2.60;;;;;;;;;;5059596;28;20388;-64
2022/11/08 09:16:14;;;;;;;6.47;2.55;;;;;;;;;;5051059;28;20450;-64
2022/11/08 09:18:40;;;;;;;8.45;2.40;;;;;;;;;;5051381;28;20477;-64
2022/11/08 09:21:07;;;;;;;7.05;2.25;;;;;;;;;;5052410;28;20060;-64
2022/11/08 09:23:33;;;;;;;6.28;2.67;;;;;;;;;;5052315;28;20078;-64
2022/11/08 09:26:00;;;;;;;5.40;2.20;;;;;;;;;;5049250;28;20096;-64
2022/11/08 09:28:26;;;;;;;5.70;2.30;;;;;;;;;;5050324;28;20044;-64
2022/11/08 09:30:52;;;;;;;9.52;2.58;;;;;;;;;;5050914;28;20033;-64
2022/11/08 09:33:18;;;;;;;6.82;2.15;;;;;;;;;;5051380;28;20496;-64
2022/11/08 09:35:45;;;;;;;7.25;2.30;;;;;;;;;;5053010;28;20045;-64
2022/11/08 09:38:11;;;;;;;8.25;2.22;;;;;;;;;;5082858;28;20048;-64
2022/11/08 09:40:48;;;;;;;9.23;2.78;;;;;;;;;;5052150;28;20044;-65
2022/11/08 09:43:29;;;;;;;5.97;2.05;;;;;;;;;;5052317;28;20041;-64
2022/11/08 09:45:56;;;;;;;4.95;2.30;;;;;;;;;;5047216;28;20049;-64
2022/11/08 09:48:24;;;;;;;7.43;1.92;;;;;;;;;;5051378;28;20044;-64
2022/11/08 09:50:51;;;;;;;5.57;2.13;;;;;;;;;;5050187;28;20048;-65
2022/11/08 09:53:18;;;;;;;9.18;2.47;;;;;;;;;;5049983;28;20078;-64
2022/11/08 09:55:48;;;;;;;8.32;2.30;;;;;;;;;;5055687;28;20041;-64
2022/11/08 09:58:15;;;;;;;7.80;2.10;;;;;;;;;;5051354;28;20179;-64
2022/11/08 10:00:41;;;;;;;5.10;1.80;;;;;;;;;;5050748;28;20082;-65
2022/11/08 10:03:13;;;;;;;5.97;1.85;;;;;;;;;;5053846;28;20076;-64
2022/11/08 10:05:42;;;;;;;6.18;1.70;;;;;;;;;;5050069;28;20059;-64
2022/11/08 10:08:14;;;;;;;5.57;2.15;;;;;;;;;;5049210;28;20485;-64
2022/11/08 10:10:45;;;;;;;5.47;2.05;;;;;;;;;;5053847;28;20147;-64
2022/11/08 10:13:11;;;;;;;7.38;2.15;;;;;;;;;;5052999;28;20063;-64
2022/11/08 10:15:46;;;;;;;5.50;2.20;;;;;;;;;;5051815;28;20485;-64
2022/11/08 10:18:12;;;;;;;8.00;2.58;;;;;;;;;;5053000;28;20056;-64
2022/11/08 10:20:56;;;;;;;7.18;2.15;;;;;;;;;;5055154;28;20127;-65
2022/11/08 10:23:25;;;;;;;8.25;2.10;;;;;;;;;;5075527;28;20044;-64
2022/11/08 10:25:55;;;;;;;4.15;1.92;;;;;;;;;;5049069;28;20042;-64
2022/11/08 10:28:24;;;;;;;6.28;2.28;;;;;;;;;;5051817;28;20051;-64
2022/11/08 10:30:51;;;;;;;7.00;2.15;;;;;;;;;;5054456;28;20052;-64
2022/11/08 10:33:20;;;;;;;8.23;1.73;;;;;;;;;;5053984;28;20053;-64
2022/11/08 10:35:47;;;;;;;5.28;1.65;;;;;;;;;;5053301;28;20049;-64
2022/11/08 10:38:19;;;;;;;7.53;2.25;;;;;;;;;;5070595;28;20049;-64
2022/11/08 10:40:51;;;;;;;5.93;2.47;;;;;;;;;;5055525;28;20041;-64
2022/11/08 10:43:17;;;;;;;5.38;2.10;;;;;;;;;;5053659;28;20049;-64
2022/11/08 10:45:43;;;;;;;5.68;1.83;;;;;;;;;;5054079;28;20037;-64
2022/11/08 10:48:10;;;;;;;5.25;2.17;;;;;;;;;;5052484;28;20132;-65
2022/11/08 10:50:48;;;;;;;7.43;2.30;;;;;;;;;;5054345;28;20094;-64
2022/11/08 10:53:18;;;;;;;7.93;2.72;;;;;;;;;;5053755;28;20091;-64
2022/11/08 10:55:49;;;;;;;4.97;1.95;;;;;;;;;;5053320;28;20037;-64
2022/11/08 10:58:29;;;;;;;8.82;2.53;;;;;;;;;;5054778;28;20052;-64
2022/11/08 11:01:00;;;;;;;5.82;1.60;;;;;;;;;;5056009;28;20041;-64
2022/11/08 11:03:27;;;;;;;5.95;2.20;;;;;;;;;;5052845;28;20112;-64
2022/11/08 11:05:57;;;;;;;6.38;2.00;;;;;;;;;;5054720;28;20060;-64
2022/11/08 11:08:24;;;;;;;8.55;3.42;;;;;;;;;;5054153;28;20457;-64
2022/11/08 11:10:50;;;;;;;6.05;2.65;;;;;;;;;;5051304;28;20033;-64
2022/11/08 11:13:17;;;;;;;6.18;2.47;;;;;;;;;;5051964;28;20099;-64
2022/11/08 11:15:45;;;;;;;7.15;2.22;;;;;;;;;;5053442;28;20485;-64
2022/11/08 11:18:21;;;;;;;8.20;2.03;;;;;;;;;;5051923;28;20037;-64
2022/11/08 11:21:06;;;;;;;6.03;2.17;;;;;;;;;;5054889;28;20397;-64
2022/11/08 11:23:34;;;;;;;3.60;1.52;;;;;;;;;;5052582;28;20080;-64
2022/11/08 11:26:00;;;;;;;12.57;2.20;;;;;;;;;;5054847;28;20049;-64
2022/11/08 11:28:26;;;;;;;5.13;1.65;;;;;;;;;;5053529;28;20175;-64
2022/11/08 11:31:03;;;;;;;8.52;1.92;;;;;;;;;;5052663;28;20095;-64
2022/11/08 11:33:30;;;;;;;5.63;1.70;;;;;;;;;;5040438;28;20040;-65
2022/11/08 11:36:01;;;;;;;5.85;1.50;;;;;;;;;;5054628;28;20092;-64
2022/11/08 11:38:31;;;;;;;4.88;1.75;;;;;;;;;;5052147;28;20056;-64
2022/11/08 11:41:00;;;;;;;5.20;1.83;;;;;;;;;;5052858;28;20052;-65
2022/11/08 11:43:36;;;;;;;9.98;1.88;;;;;;;;;;5054084;28;20051;-64
2022/11/08 11:46:12;;;;;;;7.57;2.13;;;;;;;;;;5054498;28;20041;-64
2022/11/08 11:48:41;;;;;;;8.23;1.92;;;;;;;;;;5071877;28;20076;-64
2022/11/08 11:51:09;;;;;;;7.22;2.10;;;;;;;;;;5059541;28;20405;-64
2022/11/08 11:53:36;;;;;;;4.03;1.75;;;;;;;;;;5051922;28;20040;-64
2022/11/08 11:56:08;;;;;;;7.10;1.60;;;;;;;;;;5055686;28;20044;-64
2022/11/08 11:58:43;;;;;;;6.32;1.80;;;;;;;;;;5071039;28;20128;-65
2022/11/08 12:01:27;;;;;;;5.32;2.00;;;;;;;;;;5052248;28;20141;-65
2022/11/08 12:03:54;;;;;;;8.10;1.90;;;;;;;;;;5085232;28;20175;-64
2022/11/08 12:06:30;;;;;;;6.78;1.88;;;;;;;;;;5043305;28;20041;-64
2022/11/08 12:09:04;;;;;;;5.25;1.80;;;;;;;;;;5043956;28;20049;-64
2022/11/08 12:11:42;;;;;;;7.68;2.00;;;;;;;;;;5052862;28;20063;-64
2022/11/08 12:14:11;;;;;;;3.55;1.52;;;;;;;;;;5083541;28;20481;-64
2022/11/08 12:16:37;;;;;;;5.18;2.10;;;;;;;;;;5054049;28;20060;-64
2022/11/08 12:19:10;;;;;;;5.55;1.88;;;;;;;;;;5085556;28;20103;-64
2022/11/08 12:21:44;;;;;;;8.18;1.85;;;;;;;;;;5052837;28;20036;-64
2022/11/08 12:24:10;;;;;;;;;;;;;;;;;;5053946;28;20052;-64
2022/11/08 12:26:46;;;;;;;8.63;1.70;;;;;;;;;;5052544;28;20326;-64
2022/11/08 12:29:16;;;;;;;3.67;1.60;;;;;;;;;;5053367;28;20124;-64
2022/11/08 12:31:52;;;;;;;5.93;1.70;;;;;;;;;;5039098;28;20053;-64
2022/11/08 12:34:27;;;;;;;3.92;1.70;;;;;;;;;;5049866;28;20040;-64
2022/11/08 12:36:54;;;;;;;6.97;1.85;;;;;;;;;;5083364;28;20133;-64
2022/11/08 12:39:31;;;;;;;7.43;1.88;;;;;;;;;;5053341;28;20064;-64
2022/11/08 12:41:57;;;;;;;7.07;2.00;;;;;;;;;;5050818;28;20059;-65
2022/11/08 12:44:33;;;;;;;7.90;2.20;;;;;;;;;;5053253;28;20044;-65
2022/11/08 12:47:02;;;;;;;4.75;1.60;;;;;;;;;;5052442;28;20041;-64
2022/11/08 12:49:33;;;;;;;5.13;1.90;;;;;;;;;;5052251;28;20465;-64
2022/11/08 12:51:59;;;;;;;8.38;1.80;;;;;;;;;;5052910;28;20039;-64
2022/11/08 12:54:30;;;;;;;6.40;1.73;;;;;;;;;;5051813;28;20049;-65
2022/11/08 12:56:59;;;;;;;7.05;1.65;;;;;;;;;;5050915;28;20044;-65
2022/11/08 12:59:28;;;;;;;9.27;2.65;;;;;;;;;;5048392;28;20124;-65
2022/11/08 13:01:55;;;;;;;7.30;2.05;;;;;;;;;;5051398;28;20037;-65
2022/11/08 13:04:29;;;;;;;9.65;2.50;;;;;;;;;;5051504;28;20067;-65
2022/11/08 13:06:55;;;;;;;6.53;2.28;;;;;;;;;;5052277;28;20427;-64
2022/11/08 13:09:22;;;;;;;7.45;1.65;;;;;;;;;;5083819;28;20128;-64
2022/11/08 13:12:00;;;;;;;4.70;1.80;;;;;;;;;;5052460;28;20465;-64
2022/11/08 13:14:27;;;;;;;5.43;2.00;;;;;;;;;;5052568;28;20045;-64
2022/11/08 13:17:12;;;;;;;4.25;1.65;;;;;;;;;;5051245;28;20492;-64
2022/11/08 13:19:46;;;;;;;7.10;2.60;;;;;;;;;;5052352;28;20037;-64
2022/11/08 13:22:28;;;;;;;8.88;1.70;;;;;;;;;;5052403;28;20469;-64
2022/11/08 13:24:58;;;;;;;6.35;1.88;;;;;;;;;;5070282;28;20092;-63
2022/11/08 13:27:32;;;;;;;8.23;2.03;;;;;;;;;;5050099;28;20080;-66
2022/11/08 13:30:01;;;;;;;10.23;2.00;;;;;;;;;;5053016;28;20084;-66
2022/11/08 13:32:36;;;;;;;6.53;1.75;;;;;;;;;;5050894;28;20144;-66
2022/11/08 13:35:07;;;;;;;7.05;1.95;;;;;;;;;;5050645;28;20124;-65
2022/11/08 13:37:39;;;;;;;7.80;2.00;;;;;;;;;;5052673;28;20478;-65
2022/11/08 13:40:12;;;;;;;7.13;1.60;;;;;;;;;;5051818;28;20461;-66
2022/11/08 13:42:55;;;;;;;6.22;1.67;;;;;;;;;;5052046;28;20048;-66
2022/11/08 13:45:30;;;;;;;6.57;1.95;;;;;;;;;;5051473;28;20047;-66
2022/11/08 13:47:58;;;;;;;6.50;1.80;;;;;;;;;;5051324;28;20045;-66
2022/11/08 13:50:32;;;;;;;8.45;1.90;;;;;;;;;;5052060;28;20507;-66
2022/11/08 13:53:09;;;;;;;7.70;2.03;;;;;;;;;;5049248;28;20041;-66
2022/11/08 13:55:41;;;;;;;6.90;1.98;;;;;;;;;;5037967;28;20041;-65
2022/11/08 13:58:26;;;;;;;6.15;1.98;;;;;;;;;;5046253;28;20064;-65
2022/11/08 14:00:52;;;;;;;7.68;2.67;;;;;;;;;;5040443;28;20053;-66
2022/11/08 14:03:32;;;;;;;6.35;1.90;;;;;;;;;;5051780;28;20045;-66
2022/11/08 14:06:05;;;;;;;6.38;1.65;;;;;;;;;;5050873;28;20167;-66
2022/11/08 14:08:43;;;;;;;4.75;1.77;;;;;;;;;;5051901;28;20512;-65
2022/11/08 14:11:10;;;;;;;6.65;1.98;;;;;;;;;;5052216;28;20044;-66
2022/11/08 14:13:45;;;;;;;6.82;1.83;;;;;;;;;;5049294;28;20102;-66
2022/11/08 14:16:20;;;;;;;6.78;1.85;;;;;;;;;;5049770;28;20048;-66
2022/11/08 14:18:46;;;;;;;6.75;1.75;;;;;;;;;;5044553;28;20037;-66
2022/11/08 14:21:17;;;;;;;4.95;1.70;;;;;;;;;;5041322;28;20048;-65
2022/11/08 14:23:45;;;;;;;8.52;1.92;;;;;;;;;;5049496;28;20044;-65
2022/11/08 14:26:14;;;;;;;6.07;2.13;;;;;;;;;;5050719;28;20048;-65
2022/11/08 14:28:41;;;;;;;8.32;2.22;;;;;;;;;;5050180;28;20045;-66
2022/11/08 14:31:22;;;;;;;5.57;1.83;;;;;;;;;;5049011;28;20056;-65
2022/11/08 14:33:49;;;;;;;5.13;1.95;;;;;;;;;;5049280;28;20072;-65
2022/11/08 14:36:16;;;;;;;7.53;1.80;;;;;;;;;;5051417;28;20045;-65
2022/11/08 14:38:50;;;;;;;6.30;1.90;;;;;;;;;;5044492;28;20037;-66
2022/11/08 14:41:21;;;;;;;6.38;2.30;;;;;;;;;;5042753;28;20044;-65
2022/11/08 14:43:47;;;;;;;5.93;1.90;;;;;;;;;;5078287;28;20037;-65
2022/11/08 14:46:19;;;;;;;9.23;1.90;;;;;;;;;;5079959;28;20041;-65
2022/11/08 14:48:50;;;;;;;7.38;2.08;;;;;;;;;;5045084;28;20051;-66
2022/11/08 14:51:16;;;;;;;5.55;1.98;;;;;;;;;;5051653;28;20086;-66
2022/11/08 14:53:47;;;;;;;5.75;1.88;;;;;;;;;;5050966;28;20136;-66
2022/11/08 14:56:14;;;;;;;7.57;2.50;;;;;;;;;;5046006;28;20068;-66
2022/11/08 14:58:40;;;;;;;8.93;2.30;;;;;;;;;;5043005;28;20513;-66
2022/11/08 15:01:08;;;;;;;5.22;2.00;;;;;;;;;;5045075;28;20079;-66
2022/11/08 15:03:34;;;;;;;5.43;1.88;;;;;;;;;;5044856;28;20218;-65